ESGT/THN METAR and TAF weather

Enter ICAO airport designator
Station Type Date Time Source
ESGT METAR 2019/08/19 22:20 UTC NOAA

ESGT 192220Z AUTO 18007KT 9999 FEW088/// 13/12 Q1011 RERA


Station Type Date Time Source
ESGT Decoded METAR 2019/08/19 22:20 UTC NOAA

Trollhattan Private , Sweden (ESGT) 58-19N 012-21E
Aug 19, 2019 - 06:20 PM EDT / 2019.08.19 2220 UTC
Wind: from the S (180 degrees) at 8 MPH (7 KT):0
Visibility: greater than 7 mile(s):0
Sky conditions: mostly clear
Temperature: 55 F (13 C)
Dew Point: 53 F (12 C)
Relative Humidity: 93%
Pressure (altimeter): 29.85 in. Hg (1011 hPa)
ob: ESGT 192220Z AUTO 18007KT 9999 FEW088/// 13/12 Q1011 RERA
cycle: 22

Station Type Date Time Source
ESGT TAF 2016/08/12 05:58 UTC NOAA

TAF ESGT 120430Z 1205/1224 18007KT 9999 FEW030

Example: see airport list